Flight Track Log - Related Links

Times and Time Zones

All times are in EDT time to prevent confusion due to time zone crossing. See the SWA2975 flight status page for this flight to view local times or setup timezone preferences in your user account.


Time Position Orientation Groundspeed Altitude Reporting Facility
EDT Latitude Longitude Course Direction KTS MPH feet Rate Location/Type
Fri 04:05:09 PM 39.8650 -104.6810 270° West 20 23  Level FlightAware ADS-B
Fri 04:05:38 PM 39.8640 -104.6830 237° Southwest 15 17 658 Level FlightAware ADS-B
Fri 04:07:17 PM 39.8640 -104.6840 270° West 26 30 695 Level FlightAware ADS-B
Fri 04:07:32 PM 39.8630 -104.6840 180° South 32 37 863 Level FlightAware ADS-B
Fri 04:07:42 PM 39.8620 -104.6840 180° South 15 17 896 Level FlightAware ADS-B
Fri 04:08:15 PM 39.8600 -104.6840 180° South 19 22 919 Level FlightAware ADS-B
Fri 04:08:45 PM 39.8570 -104.6840 180° South 19 22 1,006 Level FlightAware ADS-B
Fri 04:09:07 PM 39.8550 -104.6840 180° South 21 24 1,099 Level FlightAware ADS-B
Fri 04:09:40 PM 39.8520 -104.6840 180° South 23 26 1,180 Level FlightAware ADS-B
Fri 04:10:05 PM 39.8490 -104.6840 180° South 20 23 1,326 Level FlightAware ADS-B
Fri 04:12:00 PM 39.8772 -104.9524 276° West  Level FlightAware Approximate
Fri 04:13:00 PM 39.8880 -105.0933 276° West  Level FlightAware Approximate
Fri 04:14:00 PM 39.8988 -105.2343 276° West  Level FlightAware Approximate
Fri 04:14:07 PM 39.8410 -104.7370 276° West 184 212 5,900  Level FlightAware ADS-B
Fri 04:14:33 PM 39.8450 -104.7660 280° West 210 242 6,600 1,560 Climbing FlightAware ADS-B
Fri 04:14:57 PM 39.8580 -104.7940 301° West 236 272 7,200 1,870 Climbing FlightAware ADS-B
Fri 04:15:50 PM 39.8900 -104.8610 302° West 274 315 9,000 2,160 Climbing FlightAware ADS-B
Fri 04:16:37 PM 39.9020 -104.9430 281° West 301 346 10,800 2,697 Climbing FlightAware ADS-B
Fri 04:17:19 PM 39.9090 -105.0190 277° West 299 344 13,000 3,000 Climbing FlightAware ADS-B
Fri 04:18:03 PM 39.9170 -105.0980 278° West 303 349 15,100 2,721 Climbing FlightAware ADS-B
Fri 04:18:45 PM 39.9280 -105.1730 281° West 310 357 16,900 2,625 Climbing FlightAware ADS-B
Fri 04:19:23 PM 39.9450 -105.2430 288° West 318 366 18,600 2,500 Climbing FlightAware ADS-B
Fri 04:20:33 PM 39.9770 -105.3720 288° West 330 380 21,400 2,000 Climbing FlightAware ADS-B
Fri 04:21:35 PM 40.0060 -105.4920 288° West 347 399 23,000 1,647 Climbing FlightAware ADS-B
Fri 04:22:15 PM 40.0240 -105.5730 286° West 352 405 24,200 1,923 Climbing FlightAware ADS-B
Fri 04:22:53 PM 40.0430 -105.6460 289° West 353 406 25,500 2,022 Climbing FlightAware ADS-B
Fri 04:23:47 PM 40.0780 -105.7500 294° West 358 412 27,300 2,118 Climbing FlightAware ADS-B
Fri 04:24:35 PM 40.0900 -105.8580 278° West 358 412 29,100 2,093 Climbing FlightAware ADS-B
Fri 04:25:13 PM 40.0950 -105.9360 275° West 358 412 30,300 1,381 Climbing FlightAware ADS-B
Fri 04:26:28 PM 40.0930 -106.0930 269° West 358 412 31,700 762 Climbing FlightAware ADS-B
Fri 04:27:19 PM 40.0920 -106.2190 269° West 407 468 31,900 194 Climbing FlightAware ADS-B
Fri 04:28:01 PM 40.0910 -106.3270 269° West 434 499 32,000 621 Climbing FlightAware ADS-B
Fri 04:28:46 PM 40.0900 -106.4470 269° West 443 510 32,800 1,157 Climbing FlightAware ADS-B
Fri 04:29:24 PM 40.0890 -106.5500 269° West 445 512 33,600 1,077 Climbing FlightAware ADS-B
Fri 04:30:04 PM 40.0880 -106.6550 269° West 439 505 34,200 1,043 Climbing FlightAware ADS-B
Fri 04:31:42 PM 40.0850 -106.9070 269° West 426 490 36,000 771 Climbing FlightAware ADS-B
Fri 04:32:24 PM 40.0840 -107.0160 269° West 427 491 36,000  Level FlightAware ADS-B
Fri 04:33:10 PM 40.0820 -107.1370 269° West 427 491 36,000  Level FlightAware ADS-B
Fri 04:33:50 PM 40.0800 -107.2400 269° West 428 493 36,000  Level FlightAware ADS-B
Fri 04:34:32 PM 40.0790 -107.3480 269° West 429 494 36,000  Level FlightAware ADS-B
Fri 04:35:35 PM 40.0760 -107.5100 269° West 431 496 36,000  Level FlightAware ADS-B
Fri 04:36:22 PM 40.0730 -107.6310 268° West 432 497 36,000  Level FlightAware ADS-B
Fri 04:37:06 PM 40.0710 -107.7450 269° West 433 498 36,000  Level FlightAware ADS-B
Fri 04:37:48 PM 40.0690 -107.8460 269° West 434 499 36,000  Level FlightAware ADS-B
Fri 04:38:25 PM 40.0690 -107.9520 270° West 434 499 36,000  Level FlightAware ADS-B
Fri 04:39:11 PM 40.0740 -108.0720 273° West 436 502 36,000  Level FlightAware ADS-B
Fri 04:40:03 PM 40.0800 -108.2080 273° West 435 501 36,000  Level FlightAware ADS-B
Fri 04:40:48 PM 40.0850 -108.3250 273° West 434 499 36,000  Level FlightAware ADS-B
Fri 04:41:33 PM 40.0900 -108.4360 273° West 433 498 36,000  Level FlightAware ADS-B
Fri 04:42:18 PM 40.0950 -108.5590 273° West 432 497 36,000  Level FlightAware ADS-B
Fri 04:42:52 PM 40.0990 -108.6500 273° West 431 496 36,000  Level FlightAware ADS-B
Fri 04:43:39 PM 40.1040 -108.7710 273° West 429 494 36,000  Level FlightAware ADS-B
Fri 04:44:24 PM 40.1080 -108.8880 273° West 428 493 36,000  Level FlightAware ADS-B
Fri 04:45:17 PM 40.1130 -109.0210 273° West 430 495 36,000  Level FlightAware ADS-B
Fri 04:45:56 PM 40.1170 -109.1270 273° West 431 496 36,000  Level FlightAware ADS-B
Fri 04:46:44 PM 40.1220 -109.2490 273° West 433 498 36,000 -282 Level FlightAware ADS-B
Fri 04:47:21 PM 40.1280 -109.3390 275° West 432 497 35,600 -759 Descending FlightAware ADS-B
Fri 04:48:03 PM 40.1600 -109.4320 294° West 433 498 35,000 -585 Descending FlightAware ADS-B
Fri 04:48:43 PM 40.1910 -109.5160 296° West 433 498 34,800 -1,012 Descending FlightAware ADS-B
Fri 04:49:26 PM 40.2400 -109.6380 298° West 437 503 33,600 -1,020 Descending FlightAware ADS-B
Fri 04:50:23 PM 40.2900 -109.7570 299° West 441 507 33,100 -356 Descending FlightAware ADS-B
Fri 04:51:07 PM 40.3450 -109.8710 302° West 438 504 33,000 -140 Descending FlightAware ADS-B
Fri 04:51:49 PM 40.3920 -109.9630 304° West 441 507 32,900 -525 Descending FlightAware ADS-B
Fri 04:52:27 PM 40.4350 -110.0440 305° West 451 519 32,300 -643 Descending FlightAware ADS-B
Fri 04:53:13 PM 40.4860 -110.1420 304° West 453 521 32,000 -220 Descending FlightAware ADS-B
Fri 04:53:49 PM 40.5330 -110.2310 305° West 452 520 32,000  Level FlightAware ADS-B
Fri 04:54:37 PM 40.5920 -110.3400 306° West 453 521 32,000  Level FlightAware ADS-B
Fri 04:55:27 PM 40.6510 -110.4440 307° West 452 520 32,000 -960 Level FlightAware ADS-B
Fri 04:56:17 PM 40.7060 -110.5700 300° West 450 518 30,400 -1,500 Descending FlightAware ADS-B
Fri 04:56:55 PM 40.6910 -110.6700 259° West 454 522 29,800 -878 Descending FlightAware ADS-B
Fri 04:57:39 PM 40.6400 -110.7550 232° Southwest 459 528 29,200 -1,000 Descending FlightAware ADS-B
Fri 04:58:19 PM 40.5820 -110.8470 230° Southwest 453 521 28,400 -900 Descending FlightAware ADS-B
Fri 04:58:59 PM 40.5260 -110.9350 230° Southwest 442 509 28,000 -1,500 Descending FlightAware ADS-B
Fri 04:59:43 PM 40.4790 -111.0090 230° Southwest 445 512 26,300 -2,741 Descending FlightAware ADS-B
Fri 05:00:20 PM 40.4200 -111.1010 230° Southwest 437 503 24,300 -2,061 Descending FlightAware ADS-B
Fri 05:01:22 PM 40.3470 -111.2150 230° Southwest 428 493 22,900 -857 Descending FlightAware ADS-B
Fri 05:01:58 PM 40.3080 -111.2760 230° Southwest 428 493 22,900  Level FlightAware ADS-B
Fri 05:02:49 PM 40.2530 -111.3620 230° Southwest 428 493 22,900  Level FlightAware ADS-B
Fri 05:03:23 PM 40.2160 -111.4190 230° Southwest 428 493 22,900  Level FlightAware ADS-B
Fri 05:04:27 PM 40.1470 -111.5270 230° Southwest 428 493 22,900 -4,031 Level FlightAware ADS-B
Fri 05:05:34 PM 40.1880 -111.6870 289° West 318 366 14,100 -4,726 Descending FlightAware ADS-B
Fri 05:06:20 PM 40.2230 -111.7480 307° West 317 365 14,000 -74 Descending FlightAware ADS-B
Fri 05:06:55 PM 40.2490 -111.7930 307° West 317 365 14,000 -1,730 Level FlightAware ADS-B
Fri 05:08:11 PM 40.3420 -111.8820 324° Northwest 295 339 10,800 -1,699 Descending FlightAware ADS-B
Fri 05:08:48 PM 40.3760 -111.9160 323° Northwest 295 339 10,800 -1,217 Level FlightAware ADS-B
Fri 05:09:20 PM 40.4370 -111.9190 358° North 297 342 9,400 -1,429 Descending FlightAware ADS-B
Fri 05:09:51 PM 40.4730 -111.9300 347° North 295 339 9,300 -618 Descending FlightAware ADS-B
Fri 05:10:28 PM 40.5230 -111.9440 348° North 277 319 8,700 -1,176 Descending FlightAware ADS-B
Fri 05:10:42 PM 40.5420 -111.9460 355° North 281 323 8,300 -1,714 Descending FlightAware ADS-B
Fri 05:11:24 PM 40.5980 -111.9530 355° North 285 328 7,100 -1,479 Descending FlightAware ADS-B
Fri 05:11:55 PM 40.6360 -111.9570 355° North 249 287 6,500 -1,158 Descending FlightAware ADS-B
Fri 05:12:21 PM 40.6640 -111.9600 355° North 221 254 6,000 -1,019 Descending FlightAware ADS-B
Fri 05:12:48 PM 40.6900 -111.9630 355° North 191 220 5,600 -947 Descending FlightAware ADS-B
Fri 05:13:18 PM 40.7140 -111.9660 355° North 160 184 5,100 -933 Descending FlightAware ADS-B
Fri 05:13:33 PM 40.7250 -111.9680 352° North 156 180 4,900 -698 Descending FlightAware ADS-B
Fri 05:14:01 PM 40.7450 -111.9700 356° North 157 181 4,600 -764 Descending FlightAware ADS-B
Fri 05:14:28 PM 40.7640 -111.9720 355° North 157 181 4,200 -727 Descending FlightAware ADS-B
Fri 05:14:34 PM 40.7680 -111.9720 360° North 156 180 4,200  Level FlightAware ADS-B
Fri 05:22:00 PM 40.7833 -111.9667 North  Level FlightAware Approximate

Login

Don't have an account? Register now (free) for customized features, flight alerts, and more!